createdAt,value
2022-09-20T00:02:17.905Z,100208.98
2022-09-20T00:04:50.496Z,100210.39
2022-09-20T00:07:20.941Z,100205.48
2022-09-20T00:09:51.246Z,100203.52
2022-09-20T00:12:21.469Z,100208.04
2022-09-20T00:14:51.772Z,100206.63
2022-09-20T00:17:24.498Z,100207.32
2022-09-20T00:19:54.827Z,100206.45
2022-09-20T00:22:25.134Z,100200.55
2022-09-20T00:24:55.449Z,100203.02
2022-09-20T00:27:28.110Z,100206.18
2022-09-20T00:29:58.802Z,100208.30
2022-09-20T00:32:29.142Z,100210.23
2022-09-20T00:35:11.644Z,100215.48
2022-09-20T00:37:44.164Z,100215.30
2022-09-20T00:40:18.391Z,100215.47
2022-09-20T00:42:49.075Z,100213.57
2022-09-20T00:45:23.576Z,100217.59
2022-09-20T00:47:58.160Z,100215.15
2022-09-20T00:50:34.955Z,100217.95
2022-09-20T00:53:10.582Z,100221.23
2022-09-20T00:55:45.661Z,100221.08
2022-09-20T00:58:18.408Z,100213.74
2022-09-20T01:00:50.843Z,100213.58
2022-09-20T01:03:23.325Z,100212.53
2022-09-20T01:05:55.971Z,100214.30
2022-09-20T01:08:26.547Z,100215.88
2022-09-20T01:10:56.948Z,100216.05
2022-09-20T01:13:27.339Z,100214.67
2022-09-20T01:16:00.577Z,100210.68
2022-09-20T01:18:33.106Z,100213.84
2022-09-20T01:21:05.023Z,100213.34
2022-09-20T01:23:49.960Z,100212.84
2022-09-20T01:26:54.237Z,100211.66
2022-09-20T01:29:42.645Z,100213.23
2022-09-20T01:32:17.775Z,100212.38
2022-09-20T01:34:50.973Z,100214.82
2022-09-20T01:37:27.953Z,100213.77
2022-09-20T01:40:03.436Z,100213.73
2022-09-20T01:42:38.019Z,100213.05
2022-09-20T01:45:17.784Z,100210.42
2022-09-20T01:47:57.548Z,100213.57
2022-09-20T01:50:38.649Z,100212.86
2022-09-20T01:53:36.554Z,100213.19
2022-09-20T01:56:49.315Z,100211.42
2022-09-20T01:59:41.732Z,100209.66
2022-09-20T02:02:34.924Z,100208.77
2022-09-20T02:05:28.379Z,100207.21
2022-09-20T02:08:20.962Z,100207.75
2022-09-20T02:11:13.426Z,100208.30
2022-09-20T02:14:12.056Z,100206.92
2022-09-20T02:16:54.499Z,100208.52
2022-09-20T02:19:42.450Z,100209.23
2022-09-20T02:22:28.157Z,100216.22
2022-09-20T02:25:09.884Z,100215.86
2022-09-20T02:27:54.144Z,100218.30
2022-09-20T02:30:36.428Z,100218.11
2022-09-20T02:33:22.535Z,100221.27
2022-09-20T02:36:15.114Z,100221.98
2022-09-20T02:39:00.596Z,100228.29
2022-09-20T02:42:00.299Z,100227.25
2022-09-20T02:44:47.199Z,100225.36
2022-09-20T02:47:28.904Z,100233.22
2022-09-20T02:50:16.031Z,100235.16
2022-09-20T02:52:58.316Z,100233.61
2022-09-20T02:55:39.565Z,100237.14
2022-09-20T02:58:27.142Z,100241.20
2022-09-20T03:01:02.562Z,100240.71
2022-09-20T03:03:45.538Z,100242.20
2022-09-20T03:06:28.686Z,100246.39
2022-09-20T03:09:08.874Z,100243.98
2022-09-20T03:11:45.775Z,100248.04
2022-09-20T03:14:23.240Z,100245.27
2022-09-20T03:17:03.789Z,100247.20
2022-09-20T03:19:48.338Z,100245.09
2022-09-20T03:22:37.658Z,100248.21
2022-09-20T03:25:26.345Z,100251.51
2022-09-20T03:28:06.595Z,100254.96
2022-09-20T03:30:52.539Z,100256.52
2022-09-20T03:33:31.227Z,100262.95
2022-09-20T03:36:15.176Z,100263.46
2022-09-20T03:39:04.324Z,100262.02
2022-09-20T03:41:56.274Z,100262.34
2022-09-20T03:45:00.349Z,100260.20
2022-09-20T03:47:49.074Z,100261.23
2022-09-20T03:50:46.225Z,100256.48
2022-09-20T03:53:51.885Z,100258.56
2022-09-20T03:56:43.924Z,100261.52
2022-09-20T03:59:40.708Z,100261.35
2022-09-20T04:02:25.666Z,100264.84
2022-09-20T04:04:59.875Z,100266.57
2022-09-20T04:07:39.326Z,100268.48
2022-09-20T04:10:26.770Z,100272.97
2022-09-20T04:13:11.950Z,100271.92
2022-09-20T04:15:51.295Z,100271.90
2022-09-20T04:18:30.088Z,100272.08
2022-09-20T04:21:05.054Z,100268.92
2022-09-20T04:23:46.745Z,100268.73
2022-09-20T04:26:23.571Z,100275.89
2022-09-20T04:29:01.967Z,100275.18
2022-09-20T04:31:43.095Z,100277.61
2022-09-20T04:34:22.845Z,100281.98
2022-09-20T04:37:19.383Z,100282.48
2022-09-20T04:39:57.169Z,100286.48
2022-09-20T04:42:54.660Z,100284.38
2022-09-20T04:45:58.563Z,100284.73
2022-09-20T04:48:53.673Z,100287.70
2022-09-20T04:51:46.872Z,100287.69
2022-09-20T04:54:44.714Z,100292.75
2022-09-20T04:57:45.871Z,100295.55
2022-09-20T05:00:20.174Z,100296.95
2022-09-20T05:03:40.364Z,100299.22
2022-09-20T05:06:43.375Z,100297.13
2022-09-20T05:09:42.286Z,100302.88
2022-09-20T05:12:28.766Z,100305.85
2022-09-20T05:15:24.497Z,100311.42
2022-09-20T05:18:35.182Z,100316.81
2022-09-20T05:21:29.734Z,100323.45
2022-09-20T05:24:12.597Z,100325.01
2022-09-20T05:26:53.249Z,100325.52
2022-09-20T05:29:32.869Z,100322.73
2022-09-20T05:32:10.642Z,100330.56
2022-09-20T05:34:47.441Z,100332.29
2022-09-20T05:37:34.427Z,100338.38
2022-09-20T05:40:16.407Z,100341.16
2022-09-20T05:42:54.911Z,100344.81
2022-09-20T05:45:43.788Z,100342.36
2022-09-20T05:48:19.759Z,100343.54
2022-09-20T05:51:03.097Z,100347.88
2022-09-20T05:54:17.176Z,100349.05
2022-09-20T05:56:53.582Z,100345.14
2022-09-20T05:59:37.959Z,100350.45
2022-09-20T06:02:23.830Z,100355.77
2022-09-20T06:05:04.165Z,100354.80
2022-09-20T06:07:52.336Z,100349.46
2022-09-20T06:10:47.317Z,100350.20
2022-09-20T06:13:31.999Z,100351.86
2022-09-20T06:16:05.389Z,100350.05
2022-09-20T06:18:42.844Z,100353.48
2022-09-20T06:21:27.358Z,100350.79
2022-09-20T06:24:02.380Z,100353.31
2022-09-20T06:26:38.011Z,100353.58
2022-09-20T06:29:13.136Z,100354.59
2022-09-20T06:31:43.545Z,100349.97
2022-09-20T06:34:15.932Z,100349.73
2022-09-20T06:37:09.734Z,100347.20
2022-09-20T06:40:04.400Z,100349.23
2022-09-20T06:42:34.770Z,100352.13
2022-09-20T06:45:05.800Z,100361.89
2022-09-20T06:47:38.882Z,100364.69
2022-09-20T06:50:15.841Z,100368.13
2022-09-20T06:52:47.480Z,100363.04
2022-09-20T06:55:26.041Z,100368.66
2022-09-20T06:57:59.136Z,100367.21
2022-09-20T07:00:29.428Z,100373.79
2022-09-20T07:02:59.762Z,100371.45
2022-09-20T07:05:30.050Z,100378.42
2022-09-20T07:08:01.624Z,100379.09
2022-09-20T07:10:32.725Z,100377.27
2022-09-20T07:13:04.043Z,100382.14
2022-09-20T07:15:36.431Z,100384.00
2022-09-20T07:18:07.768Z,100385.48
2022-09-20T07:20:38.019Z,100391.02
2022-09-20T07:23:08.313Z,100395.55
2022-09-20T07:25:38.961Z,100396.73
2022-09-20T07:28:09.218Z,100401.98
2022-09-20T07:30:39.734Z,100408.50
2022-09-20T07:33:10.935Z,100409.52
2022-09-20T07:35:41.802Z,100413.52
2022-09-20T07:38:12.193Z,100413.52
2022-09-20T07:40:45.013Z,100409.45
2022-09-20T07:43:15.328Z,100410.59
2022-09-20T07:45:45.673Z,100413.05
2022-09-20T07:48:16.256Z,100412.19
2022-09-20T07:50:53.534Z,100409.21
2022-09-20T07:53:24.924Z,100416.20
2022-09-20T07:56:03.293Z,100418.98
2022-09-20T07:58:35.873Z,100409.16
2022-09-20T08:01:09.676Z,100414.71
2022-09-20T08:03:40.487Z,100416.01
2022-09-20T08:06:14.551Z,100417.02
2022-09-20T08:08:45.386Z,100414.94
2022-09-20T08:11:19.200Z,100419.08
2022-09-20T08:14:08.256Z,100421.97
2022-09-20T08:16:43.730Z,100424.77
2022-09-20T08:19:18.067Z,100425.52
2022-09-20T08:21:48.830Z,100431.29
2022-09-20T08:24:19.456Z,100425.65
2022-09-20T08:26:49.897Z,100425.62
2022-09-20T08:29:20.215Z,100423.67
2022-09-20T08:31:50.617Z,100424.41
2022-09-20T08:34:21.080Z,100427.77
2022-09-20T08:36:52.727Z,100425.64
2022-09-20T08:42:23.922Z,100423.70
2022-09-20T08:44:59.175Z,100424.73
2022-09-20T08:47:33.257Z,100429.23
2022-09-20T08:50:09.965Z,100426.02
2022-09-20T08:52:45.554Z,100425.52
2022-09-20T08:55:18.701Z,100427.80
2022-09-20T08:57:53.115Z,100431.25
2022-09-20T09:00:26.335Z,100436.33
2022-09-20T09:03:01.226Z,100438.73
2022-09-20T09:05:38.388Z,100439.05
2022-09-20T09:08:16.490Z,100439.63
2022-09-20T09:10:54.719Z,100436.33
2022-09-20T09:13:31.161Z,100432.33
2022-09-20T09:16:07.563Z,100431.77
2022-09-20T09:18:40.156Z,100437.64
2022-09-20T09:21:18.488Z,100440.33
2022-09-20T09:23:54.456Z,100444.67
2022-09-20T09:26:25.890Z,100444.65
2022-09-20T09:29:16.191Z,100448.61
2022-09-20T09:31:47.334Z,100451.15
2022-09-20T09:34:29.254Z,100449.63
2022-09-20T09:37:00.254Z,100450.36
2022-09-20T09:39:33.132Z,100453.30
2022-09-20T09:42:19.956Z,100450.27
2022-09-20T09:44:50.506Z,100452.58
2022-09-20T09:47:29.400Z,100456.63
2022-09-20T09:50:04.886Z,100457.14
2022-09-20T09:52:38.031Z,100459.34
2022-09-20T09:55:11.180Z,100458.27
2022-09-20T09:57:55.934Z,100462.73
2022-09-20T10:00:28.796Z,100464.52
2022-09-20T10:03:29.907Z,100457.55
2022-09-20T10:06:14.604Z,100455.48
2022-09-20T10:08:59.765Z,100459.42
2022-09-20T10:11:41.911Z,100460.44
2022-09-20T10:14:29.539Z,100458.98
2022-09-20T10:17:19.105Z,100457.64
2022-09-20T10:20:05.300Z,100461.77
2022-09-20T10:23:06.649Z,100456.92
2022-09-20T10:25:49.141Z,100460.49
2022-09-20T10:28:35.524Z,100459.51
2022-09-20T10:31:23.565Z,100459.94
2022-09-20T10:34:11.224Z,100461.90
2022-09-20T10:36:50.647Z,100466.06
2022-09-20T10:39:26.373Z,100465.98
2022-09-20T10:42:26.750Z,100463.30
2022-09-20T10:45:11.762Z,100463.39
2022-09-20T10:47:54.499Z,100459.75
2022-09-20T10:50:34.917Z,100457.09
2022-09-20T10:53:30.256Z,100458.29
2022-09-20T10:56:10.599Z,100458.52
2022-09-20T10:58:56.971Z,100456.14
2022-09-20T11:01:35.535Z,100457.13
2022-09-20T11:04:23.953Z,100455.98
2022-09-20T11:07:03.872Z,100450.42
2022-09-20T11:09:38.942Z,100453.11
2022-09-20T11:12:16.278Z,100451.55
2022-09-20T11:14:53.935Z,100450.67
2022-09-20T11:17:27.948Z,100453.60
2022-09-20T11:20:07.417Z,100456.55
2022-09-20T11:22:44.384Z,100449.52
2022-09-20T11:25:23.979Z,100447.77
2022-09-20T11:28:02.792Z,100444.92
2022-09-20T11:30:39.299Z,100447.18
2022-09-20T11:33:18.733Z,100448.86
2022-09-20T11:35:54.597Z,100452.92
2022-09-20T11:38:30.057Z,100454.45
2022-09-20T11:41:08.761Z,100451.17
2022-09-20T11:43:46.064Z,100448.46
2022-09-20T11:46:24.310Z,100451.20
2022-09-20T11:49:01.634Z,100449.95
2022-09-20T11:52:18.891Z,100447.89
2022-09-20T11:55:10.824Z,100446.95
2022-09-20T11:57:42.363Z,100446.60
2022-09-20T12:00:14.129Z,100450.40
2022-09-20T12:02:49.790Z,100453.33
2022-09-20T12:05:33.691Z,100457.59
2022-09-20T12:08:06.626Z,100462.64
2022-09-20T12:10:40.345Z,100462.61
2022-09-20T12:13:24.441Z,100464.48
2022-09-20T12:16:03.256Z,100465.95
2022-09-20T12:18:47.184Z,100465.06
2022-09-20T12:21:23.849Z,100463.77
2022-09-20T12:24:21.274Z,100460.08
2022-09-20T12:26:56.312Z,100451.61
2022-09-20T12:29:54.773Z,100453.36
2022-09-20T12:32:56.446Z,100454.23
2022-09-20T12:36:14.900Z,100452.40
2022-09-20T12:38:58.771Z,100457.27
2022-09-20T12:41:45.589Z,100461.27
2022-09-20T12:44:32.172Z,100463.23
2022-09-20T12:47:04.849Z,100455.45
2022-09-20T12:50:00.519Z,100457.98
2022-09-20T12:52:57.258Z,100461.87
2022-09-20T12:55:43.934Z,100466.16
2022-09-20T12:58:28.099Z,100465.41
2022-09-20T13:01:30.316Z,100469.48
2022-09-20T13:04:32.345Z,100470.71
2022-09-20T13:07:34.698Z,100474.72
2022-09-20T13:10:20.490Z,100475.34
2022-09-20T13:12:54.658Z,100479.47
2022-09-20T13:15:25.147Z,100473.80
2022-09-20T13:17:59.982Z,100477.37
2022-09-20T13:20:34.938Z,100477.19
2022-09-20T13:23:06.492Z,100476.47
2022-09-20T13:25:42.004Z,100471.63
2022-09-20T13:28:22.815Z,100474.60
2022-09-20T13:31:13.202Z,100471.78
2022-09-20T13:33:43.649Z,100474.20
2022-09-20T13:36:14.707Z,100477.88
2022-09-20T13:38:45.969Z,100478.80
2022-09-20T13:41:16.459Z,100478.89
2022-09-20T13:43:49.971Z,100481.49
2022-09-20T13:46:25.428Z,100486.76
2022-09-20T13:49:17.517Z,100488.90
2022-09-20T13:51:48.984Z,100482.76
2022-09-20T13:54:28.485Z,100484.34
2022-09-20T13:57:02.763Z,100483.11
2022-09-20T13:59:37.670Z,100480.86
2022-09-20T14:02:20.688Z,100482.41
2022-09-20T14:04:52.708Z,100482.50
2022-09-20T14:07:25.828Z,100480.80
2022-09-20T14:09:56.995Z,100480.33
2022-09-20T14:12:30.376Z,100479.92
2022-09-20T14:15:02.240Z,100476.03
2022-09-20T14:17:38.425Z,100477.13
2022-09-20T14:20:15.337Z,100477.92
2022-09-20T14:22:45.032Z,100478.30
2022-09-20T14:25:28.459Z,100478.21
2022-09-20T14:28:18.669Z,100478.05
2022-09-20T14:30:49.636Z,100479.09
2022-09-20T14:33:24.400Z,100480.28
2022-09-20T14:35:55.519Z,100482.35
2022-09-20T14:38:28.516Z,100482.48
2022-09-20T14:40:59.170Z,100481.63
2022-09-20T14:43:34.238Z,100475.70
2022-09-20T14:46:06.780Z,100481.92
2022-09-20T14:48:41.995Z,100482.95
2022-09-20T14:51:24.378Z,100479.42
2022-09-20T14:54:16.010Z,100482.09
2022-09-20T14:56:53.164Z,100483.27
2022-09-20T14:59:27.306Z,100483.04
2022-09-20T15:02:02.931Z,100480.96
2022-09-20T15:04:35.497Z,100481.70
2022-09-20T15:07:08.539Z,100478.30
2022-09-20T15:09:38.948Z,100477.73
2022-09-20T15:12:15.243Z,100483.50
2022-09-20T15:14:46.100Z,100485.79
2022-09-20T15:17:19.086Z,100487.98
2022-09-20T15:19:53.740Z,100486.84
2022-09-20T15:22:26.080Z,100494.67
2022-09-20T15:24:58.920Z,100498.80
2022-09-20T15:27:29.615Z,100493.32
2022-09-20T15:29:59.943Z,100491.38
2022-09-20T15:32:30.394Z,100493.46
2022-09-20T15:35:00.768Z,100496.61
2022-09-20T15:37:31.117Z,100496.27
2022-09-20T15:40:02.243Z,100497.10
2022-09-20T15:42:32.787Z,100496.23
2022-09-20T15:45:03.497Z,100500.84
2022-09-20T15:47:33.925Z,100498.96
2022-09-20T15:50:04.897Z,100497.82
2022-09-20T15:52:38.034Z,100496.34
2022-09-20T15:55:10.717Z,100499.27
2022-09-20T15:57:41.985Z,100499.95
2022-09-20T16:00:15.042Z,100503.40
2022-09-20T16:02:49.162Z,100507.36
2022-09-20T16:05:21.916Z,100508.40
2022-09-20T16:07:52.439Z,100510.98
2022-09-20T16:10:22.865Z,100518.34
2022-09-20T16:12:55.942Z,100521.38
2022-09-20T16:15:28.513Z,100522.16
2022-09-20T16:18:16.723Z,100524.56
2022-09-20T16:20:48.444Z,100529.04
2022-09-20T16:23:21.825Z,100531.05
2022-09-20T16:26:00.214Z,100532.61
2022-09-20T16:28:31.148Z,100543.41
2022-09-20T16:31:01.676Z,100550.15
2022-09-20T16:33:34.285Z,100556.48
2022-09-20T16:36:05.109Z,100564.88
2022-09-20T16:38:37.278Z,100568.94
2022-09-20T16:41:08.467Z,100569.14
2022-09-20T16:43:40.041Z,100577.71
2022-09-20T16:46:12.098Z,100583.63
2022-09-20T16:48:48.049Z,100588.04
2022-09-20T16:51:20.577Z,100590.65
2022-09-20T16:53:58.670Z,100597.77
2022-09-20T16:56:30.733Z,100606.64
2022-09-20T16:59:01.064Z,100610.36
2022-09-20T17:01:32.711Z,100616.42
2022-09-20T17:04:05.926Z,100614.39
2022-09-20T17:06:38.385Z,100617.80
2022-09-20T17:09:09.541Z,100622.30
2022-09-20T17:11:41.837Z,100627.48
2022-09-20T17:14:12.567Z,100633.16
2022-09-20T17:16:47.596Z,100638.33
2022-09-20T17:19:19.708Z,100640.88
2022-09-20T17:21:52.147Z,100638.55
2022-09-20T17:24:24.300Z,100648.30
2022-09-20T17:26:55.650Z,100653.48
2022-09-20T17:29:28.162Z,100654.11
2022-09-20T17:32:00.264Z,100659.08
2022-09-20T17:34:31.863Z,100657.40
2022-09-20T17:37:03.512Z,100657.99
2022-09-20T17:39:33.878Z,100658.59
2022-09-20T17:42:04.168Z,100663.35
2022-09-20T17:44:36.819Z,100669.37
2022-09-20T17:47:08.240Z,100670.29
2022-09-20T17:49:40.711Z,100673.16
2022-09-20T17:52:11.338Z,100681.64
2022-09-20T17:54:42.356Z,100682.41
2022-09-20T17:57:12.676Z,100683.00
2022-09-20T17:59:42.947Z,100687.08
2022-09-20T18:02:13.459Z,100682.95
2022-09-20T18:04:43.750Z,100685.45
2022-09-20T18:07:16.399Z,100685.69
2022-09-20T18:09:46.760Z,100684.16
2022-09-20T18:12:20.840Z,100686.33
2022-09-20T18:14:51.724Z,100695.01
2022-09-20T18:17:22.171Z,100700.34
2022-09-20T18:19:52.582Z,100700.58
2022-09-20T18:22:22.899Z,100705.37
2022-09-20T18:24:53.158Z,100709.43
2022-09-20T18:27:23.561Z,100716.31
2022-09-20T18:29:53.899Z,100713.21
2022-09-20T18:32:24.415Z,100714.65
2022-09-20T18:34:54.788Z,100720.27
2022-09-20T18:37:25.063Z,100720.11
2022-09-20T18:39:55.767Z,100719.10
2022-09-20T18:42:26.454Z,100721.57
2022-09-20T18:44:56.716Z,100724.92
2022-09-20T18:47:27.151Z,100726.16
2022-09-20T18:49:57.528Z,100731.27
2022-09-20T18:52:29.799Z,100739.02
2022-09-20T18:55:00.411Z,100740.80
2022-09-20T18:57:31.536Z,100738.36
2022-09-20T19:00:03.995Z,100735.77
2022-09-20T19:03:04.784Z,100735.25
2022-09-20T19:05:44.144Z,100742.64
2022-09-20T19:08:26.643Z,100737.96
2022-09-20T19:11:02.316Z,100741.14
2022-09-20T19:13:43.347Z,100742.91
2022-09-20T19:16:20.811Z,100748.02
2022-09-20T19:19:09.361Z,100748.37
2022-09-20T19:21:47.472Z,100748.40
2022-09-20T19:24:29.243Z,100752.44
2022-09-20T19:27:07.310Z,100758.05
2022-09-20T19:29:38.924Z,100759.98
2022-09-20T19:32:16.399Z,100766.82
2022-09-20T19:34:51.132Z,100765.44
2022-09-20T19:37:31.090Z,100771.40
2022-09-20T19:40:17.234Z,100774.90
2022-09-20T19:43:03.418Z,100777.70
2022-09-20T19:45:42.182Z,100782.62
2022-09-20T19:48:18.355Z,100783.86
2022-09-20T19:50:52.938Z,100791.38
2022-09-20T19:53:27.630Z,100795.06
2022-09-20T19:56:01.807Z,100795.06
2022-09-20T19:58:33.027Z,100799.63
2022-09-20T20:01:04.104Z,100801.91
2022-09-20T20:03:35.801Z,100806.98
2022-09-20T20:06:12.791Z,100803.50
2022-09-20T20:08:45.827Z,100807.17
2022-09-20T20:11:27.569Z,100814.69
2022-09-20T20:14:07.213Z,100817.84
2022-09-20T20:16:53.890Z,100819.60
2022-09-20T20:19:39.991Z,100820.48
2022-09-20T20:22:28.422Z,100822.95
2022-09-20T20:24:59.666Z,100821.19
2022-09-20T20:27:31.411Z,100823.30
2022-09-20T20:30:01.757Z,100829.25
2022-09-20T20:32:33.142Z,100825.77
2022-09-20T20:35:03.421Z,100828.91
2022-09-20T20:37:35.085Z,100830.30
2022-09-20T20:40:06.246Z,100829.79
2022-09-20T20:42:37.163Z,100830.84
2022-09-20T20:45:10.448Z,100830.33
2022-09-20T20:47:44.279Z,100833.80
2022-09-20T20:50:15.083Z,100831.89
2022-09-20T20:52:46.004Z,100831.55
2022-09-20T20:55:17.411Z,100829.45
2022-09-20T20:57:52.242Z,100836.27
2022-09-20T21:00:22.849Z,100832.09
2022-09-20T21:02:59.150Z,100836.29
2022-09-20T21:05:30.122Z,100835.42
2022-09-20T21:08:00.399Z,100837.70
2022-09-20T21:10:30.803Z,100838.04
2022-09-20T21:13:01.594Z,100832.98
2022-09-20T21:15:31.997Z,100833.51
2022-09-20T21:18:02.326Z,100835.08
2022-09-20T21:20:32.675Z,100835.59
2022-09-20T21:23:02.911Z,100841.36
2022-09-20T21:25:33.220Z,100837.52
2022-09-20T21:28:03.905Z,100844.85
2022-09-20T21:30:34.192Z,100845.55
2022-09-20T21:33:04.666Z,100853.77
2022-09-20T21:35:34.914Z,100857.80
2022-09-20T21:38:05.195Z,100854.64
2022-09-20T21:40:35.908Z,100860.06
2022-09-20T21:43:06.442Z,100861.45
2022-09-20T21:45:40.335Z,100861.46
2022-09-20T21:48:10.907Z,100860.08
2022-09-20T21:50:41.134Z,100860.41
2022-09-20T21:53:11.441Z,100865.14
2022-09-20T21:55:41.761Z,100865.48
2022-09-20T21:58:12.093Z,100864.44
2022-09-20T22:00:43.292Z,100868.98
2022-09-20T22:03:14.449Z,100865.31
2022-09-20T22:05:44.750Z,100868.45
2022-09-20T22:08:15.608Z,100868.11
2022-09-20T22:10:55.390Z,100865.30
2022-09-20T22:13:25.918Z,100868.45
2022-09-20T22:16:03.261Z,100868.80
2022-09-20T22:18:38.301Z,100871.42
2022-09-20T22:21:12.090Z,100868.98
2022-09-20T22:23:43.248Z,100867.91
2022-09-20T22:26:15.657Z,100872.62
2022-09-20T22:28:46.869Z,100869.11
2022-09-20T22:31:18.690Z,100872.61
2022-09-20T22:33:50.976Z,100868.59
2022-09-20T22:36:23.174Z,100874.17
2022-09-20T22:38:54.269Z,100874.87
2022-09-20T22:41:25.163Z,100877.50
2022-09-20T22:43:55.700Z,100877.14
2022-09-20T22:46:28.211Z,100875.38
2022-09-20T22:48:58.518Z,100874.86
2022-09-20T22:51:30.789Z,100876.77
2022-09-20T22:54:01.424Z,100876.27
2022-09-20T22:56:32.414Z,100874.17
2022-09-20T23:54:34.151Z,100890.12
2022-09-20T23:57:04.579Z,100889.42
2022-09-20T23:59:34.880Z,100892.91
